Station info - map view · info · telemetry · weather · raw · status · beacons · messages · bulletins · browse · moving · my account
Callsign, ship name or locator: Clear       
It is possible to search using wildcards (*?) after a prefix. Example: OH*
APRS station DL6YCI-9 - show graphs
Map loading...
Comment: 144.537MHz Wolfgang aus Bielefeld
Mic-E message: En route
Location: 57°06.55' N 9°05.90' E - locator JO47NC16TE - show map - static map
6.6 miles West bearing 287° from Fjerritslev, Jammerbugt Kommune, Region North Jutland, Denmark [?]
11.8 miles Northwest bearing 329° from Løgstør, Vesthimmerland Kommune, Region North Jutland, Denmark
31.1 miles West bearing 278° from Aalborg, Ålborg Kommune, Region North Jutland, Denmark
78.2 miles Northwest bearing 328° from Århus, Århus Kommune, Central Jutland, Denmark
Last position: 2018-07-15 15:09:25 EDT (11h45m ago)
2018-07-15 21:09:25 CEST local time at Fjerritslev, Denmark [?]
Altitude: 20 ft
Course: 107°
Speed: 45 MPH
Device: Yaesu: FTM-350 (rig)
Last path: DL6YCI-9>UW0VU5 via LD3GB*,WIDE2-1,qAR,SM6EAT-1 (good)
Positions stored: 78748
Packet rate: 77 seconds between packets on average during 3765 seconds.
Stations near current position of DL6YCI-9 - show more
callsign distance last heard - EDT      callsign distance last heard - EDT
OZ7REL B12.2 miles 149°2018-07-16 02:36:31 OZ7REL-B12.2 miles 149°2018-07-16 02:36:41
OZ1MVS-914.9 miles 133°2018-07-15 06:59:31 OZ2CGJ15.2 miles 126°2018-07-15 14:15:01
Hanstholm AIS16.9 miles 270°2018-06-30 00:04:13 OZ9JP22.2 miles 113°2018-06-16 05:21:36
OZ1GMU-525.7 miles 143°2018-07-14 12:58:16 EW613625.8 miles 221°2018-07-16 02:50:58
OZ9OK-428.0 miles 230°2018-07-13 00:08:25
Stations which heard DL6YCI-9 directly on radio –
callsign pkts first heard - EDT last heard longest (tx => rx) longest at - EDT
DB0HHN 13 2018-07-15 06:04:04 2018-07-15 06:44:45 JO44XA > JO53AS 17.5 miles 162° 2018-07-15 06:44:45
OZ1RON 8 2018-07-15 07:50:01 2018-07-15 08:04:12 JO44RP > JO44SV 16.6 miles 18° 2018-07-15 07:50:01
DC8LV 16 2018-07-15 06:03:13 2018-07-15 06:55:16 JO43XR > JO43SV 20.7 miles 304° 2018-07-15 06:03:13
LD4KA 3 2018-07-15 13:25:53 2018-07-15 14:58:37 JO46HK > JO38XD 120.7 miles 349° 2018-07-15 13:25:53
OZ2DXE-2 3 2018-07-15 13:22:49 2018-07-15 13:57:45 JO46GO > JO46ML 22.1 miles 114° 2018-07-15 13:57:45
OZ4DIM-2 5 2018-07-15 14:32:34 2018-07-15 14:56:32 JO46HW > JO47XO 66.1 miles 47° 2018-07-15 14:32:34
LD3JS 1 2018-07-15 15:00:39 2018-07-15 15:00:39 JO47LC > JO49XE 149.0 miles 13° 2018-07-15 15:00:39
OZ2REC-2 1 2018-07-15 14:48:06 2018-07-15 14:48:06 JO47JA > JO46VR 43.7 miles 117° 2018-07-15 14:48:06
OZ2DIJ-2 22 2018-07-15 10:49:17 2018-07-15 11:21:41 JO45IJ > JO45FM 14.3 miles 312° 2018-07-15 10:49:17
LD4VS 3 2018-07-15 14:49:06 2018-07-15 15:08:25 JO47JA > JO48JQ 114.2 miles 360° 2018-07-15 14:49:06
DB0WOA-10 1 2018-07-15 07:21:33 2018-07-15 07:21:33 JO44UH > JO44QA 25.4 miles 215° 2018-07-15 07:21:33
DB0FS-10 12 2018-07-15 05:42:00 2018-07-15 06:29:40 JO43XV > JO43XO 21.9 miles 179° 2018-07-15 06:29:40
DB0HHW 12 2018-07-15 06:03:14 2018-07-15 06:45:49 JO44XA > JO43TQ 26.8 miles 204° 2018-07-15 06:45:49
LD4LF 1 2018-07-15 12:29:23 2018-07-15 12:29:23 JO46BB > JO48EE 149.5 miles 3° 2018-07-15 12:29:23
DO1LKD 12 2018-07-15 07:01:22 2018-07-15 07:27:39 JO44XD > JO44WJ 17.4 miles 346° 2018-07-15 07:01:22
DD3TF-5 1 2018-07-15 06:06:14 2018-07-15 06:06:14 JO43XR > JO53AP 7.5 miles 155° 2018-07-15 06:06:14
LD4AT 1 2018-07-15 14:45:29 2018-07-15 14:45:29 JO46JX > JO48JK 101.7 miles 1° 2018-07-15 14:45:29
LD3GB 1 2018-07-15 15:09:25 2018-07-15 15:09:25 JO47NC > JO49LF 145.9 miles 358° 2018-07-15 15:09:25
DK3ML-10 1 2018-07-15 05:55:24 2018-07-15 05:55:24 JO43XS > JO43UN 15.0 miles 214° 2018-07-15 05:55:24
OZ7DIH-1 43 2018-07-15 13:36:39 2018-07-15 14:43:40 JO46IX > JO46ES 19.5 miles 219° 2018-07-15 14:43:40
LD4AI 4 2018-07-15 14:33:03 2018-07-15 15:03:44 JO46HW > JO48HJ 99.8 miles 359° 2018-07-15 14:33:03
OZ2AGE-4 3 2018-07-15 13:59:16 2018-07-15 14:30:35 JO46GO > JO46EW 21.6 miles 344° 2018-07-15 13:59:16
DH3ZR-10 68 2018-07-15 07:38:51 2018-07-15 10:48:17 JO45JJ > JO44KQ 48.1 miles 176° 2018-07-15 10:48:17
DH3ZR-11 21 2018-07-15 08:22:26 2018-07-15 10:03:16 JO44KX > JO44IR 18.8 miles 200° 2018-07-15 10:03:16
DL1FAC-10 1 2018-07-15 06:58:19 2018-07-15 06:58:19 JO44XC > JO54HD 27.4 miles 88° 2018-07-15 06:58:19
LD4VK 31 2018-07-15 11:36:47 2018-07-15 15:02:43 JO45DS > JO38GI 189.8 miles 340° 2018-07-15 11:36:47

Only position packets which were originated by the station are shown here. The range statistics show some extra long hops, because some digipeaters do not correctly add themselves to the digipeater path. Please check the raw packets.
About this site
This page shows real-time information collected from the Automatic Position Reporting System Internet network (APRS-IS). APRS is used by amateur (ham) radio operators to transmit real-time position information, weather data, telemetry and messages over the radio. A vehicle equipped with a GPS receiver, a VHF transmitter or HF transceiver and a small computer device called a tracker transmits it's location, speed and course in a small data packet, which is then received by a nearby iGate receiving site which forwards the packet on the Internet. Systems connected to the Internet can send information on the APRS-IS without a radio transmitter, or collect and display information transmitted anywhere in the world.
FAQ · Blog · Discussion group · Linking to aprs.fi · AIS sites · Service status · Database statistics · Advertising on aprs.fi · Technical details · API · Change log · Planned changes · Credits and thanks · Terms Of Service · iPhone/iPad APRS